sensor_id;sensor_type;location;lat;lon;timestamp;P1;durP1;ratioP1;P2;durP2;ratioP2
76725;SDS011;65651;53.154;17.916;2023-12-20T00:01:24;5.50;;;4.20;;
76725;SDS011;65651;53.154;17.916;2023-12-20T00:03:53;6.10;;;4.50;;
76725;SDS011;65651;53.154;17.916;2023-12-20T00:06:20;6.60;;;4.60;;
76725;SDS011;65651;53.154;17.916;2023-12-20T00:08:47;6.20;;;3.40;;
76725;SDS011;65651;53.154;17.916;2023-12-20T00:11:15;4.60;;;3.80;;
76725;SDS011;65651;53.154;17.916;2023-12-20T00:13:42;4.70;;;3.70;;
76725;SDS011;65651;53.154;17.916;2023-12-20T00:16:10;6.90;;;4.40;;
76725;SDS011;65651;53.154;17.916;2023-12-20T00:18:37;6.90;;;4.50;;
76725;SDS011;65651;53.154;17.916;2023-12-20T00:21:05;5.70;;;3.50;;
76725;SDS011;65651;53.154;17.916;2023-12-20T00:23:32;6.70;;;4.50;;
76725;SDS011;65651;53.154;17.916;2023-12-20T00:26:00;9.30;;;5.10;;
76725;SDS011;65651;53.154;17.916;2023-12-20T00:28:27;10.60;;;3.10;;
76725;SDS011;65651;53.154;17.916;2023-12-20T00:30:54;4.70;;;3.30;;
76725;SDS011;65651;53.154;17.916;2023-12-20T00:33:22;5.10;;;3.90;;
76725;SDS011;65651;53.154;17.916;2023-12-20T00:35:49;6.20;;;4.20;;
76725;SDS011;65651;53.154;17.916;2023-12-20T00:38:17;6.80;;;4.20;;
76725;SDS011;65651;53.154;17.916;2023-12-20T00:40:44;6.00;;;4.40;;
76725;SDS011;65651;53.154;17.916;2023-12-20T00:43:12;6.10;;;4.20;;
76725;SDS011;65651;53.154;17.916;2023-12-20T00:45:39;6.60;;;4.30;;
76725;SDS011;65651;53.154;17.916;2023-12-20T00:48:06;3.80;;;3.20;;
76725;SDS011;65651;53.154;17.916;2023-12-20T00:50:34;4.90;;;4.10;;
76725;SDS011;65651;53.154;17.916;2023-12-20T00:53:01;6.60;;;4.60;;
76725;SDS011;65651;53.154;17.916;2023-12-20T00:55:28;7.90;;;5.00;;
76725;SDS011;65651;53.154;17.916;2023-12-20T00:57:56;8.30;;;5.20;;
76725;SDS011;65651;53.154;17.916;2023-12-20T01:00:23;3.60;;;2.30;;
76725;SDS011;65651;53.154;17.916;2023-12-20T01:02:50;4.80;;;3.70;;
76725;SDS011;65651;53.154;17.916;2023-12-20T01:05:18;5.30;;;3.50;;
76725;SDS011;65651;53.154;17.916;2023-12-20T01:07:46;4.70;;;2.80;;
76725;SDS011;65651;53.154;17.916;2023-12-20T01:10:13;5.50;;;4.00;;
76725;SDS011;65651;53.154;17.916;2023-12-20T01:12:40;3.60;;;2.50;;
76725;SDS011;65651;53.154;17.916;2023-12-20T01:15:07;5.00;;;4.00;;
76725;SDS011;65651;53.154;17.916;2023-12-20T01:17:35;7.70;;;4.10;;
76725;SDS011;65651;53.154;17.916;2023-12-20T01:20:02;6.20;;;3.80;;
76725;SDS011;65651;53.154;17.916;2023-12-20T01:22:31;4.60;;;3.40;;
76725;SDS011;65651;53.154;17.916;2023-12-20T01:24:58;6.30;;;4.80;;
76725;SDS011;65651;53.154;17.916;2023-12-20T01:27:26;4.90;;;3.60;;
76725;SDS011;65651;53.154;17.916;2023-12-20T01:29:53;4.90;;;3.90;;
76725;SDS011;65651;53.154;17.916;2023-12-20T01:32:21;5.10;;;4.00;;
76725;SDS011;65651;53.154;17.916;2023-12-20T01:34:48;7.30;;;5.40;;
76725;SDS011;65651;53.154;17.916;2023-12-20T01:37:15;4.40;;;2.70;;
76725;SDS011;65651;53.154;17.916;2023-12-20T01:39:43;6.90;;;5.20;;
76725;SDS011;65651;53.154;17.916;2023-12-20T01:42:10;5.40;;;4.50;;
76725;SDS011;65651;53.154;17.916;2023-12-20T01:44:37;6.70;;;4.70;;
76725;SDS011;65651;53.154;17.916;2023-12-20T01:47:04;5.70;;;4.10;;
76725;SDS011;65651;53.154;17.916;2023-12-20T01:49:32;6.80;;;5.30;;
76725;SDS011;65651;53.154;17.916;2023-12-20T01:52:00;5.80;;;4.60;;
76725;SDS011;65651;53.154;17.916;2023-12-20T01:54:27;4.90;;;3.90;;
76725;SDS011;65651;53.154;17.916;2023-12-20T01:56:54;5.20;;;3.50;;
76725;SDS011;65651;53.154;17.916;2023-12-20T01:59:22;4.50;;;3.50;;
76725;SDS011;65651;53.154;17.916;2023-12-20T02:01:50;4.60;;;3.50;;
76725;SDS011;65651;53.154;17.916;2023-12-20T02:04:20;5.90;;;4.50;;
76725;SDS011;65651;53.154;17.916;2023-12-20T02:06:48;5.50;;;4.70;;
76725;SDS011;65651;53.154;17.916;2023-12-20T02:09:19;6.20;;;4.70;;
76725;SDS011;65651;53.154;17.916;2023-12-20T02:11:46;8.20;;;5.20;;
76725;SDS011;65651;53.154;17.916;2023-12-20T02:14:13;7.90;;;6.00;;
76725;SDS011;65651;53.154;17.916;2023-12-20T02:16:41;6.80;;;5.60;;
76725;SDS011;65651;53.154;17.916;2023-12-20T02:19:13;6.90;;;5.30;;
76725;SDS011;65651;53.154;17.916;2023-12-20T02:21:44;7.30;;;5.00;;
76725;SDS011;65651;53.154;17.916;2023-12-20T02:24:12;7.20;;;5.40;;
76725;SDS011;65651;53.154;17.916;2023-12-20T02:26:40;6.80;;;5.30;;
76725;SDS011;65651;53.154;17.916;2023-12-20T02:29:08;8.60;;;6.50;;
76725;SDS011;65651;53.154;17.916;2023-12-20T02:31:35;8.60;;;5.80;;
76725;SDS011;65651;53.154;17.916;2023-12-20T02:34:02;6.40;;;4.50;;
76725;SDS011;65651;53.154;17.916;2023-12-20T02:36:30;7.60;;;5.60;;
76725;SDS011;65651;53.154;17.916;2023-12-20T02:38:57;7.10;;;4.90;;
76725;SDS011;65651;53.154;17.916;2023-12-20T02:41:24;6.00;;;4.40;;
76725;SDS011;65651;53.154;17.916;2023-12-20T02:43:51;5.70;;;4.30;;
76725;SDS011;65651;53.154;17.916;2023-12-20T02:46:18;5.00;;;3.60;;
76725;SDS011;65651;53.154;17.916;2023-12-20T02:48:46;4.20;;;3.50;;
76725;SDS011;65651;53.154;17.916;2023-12-20T02:51:14;4.50;;;3.60;;
76725;SDS011;65651;53.154;17.916;2023-12-20T02:53:41;3.50;;;2.70;;
76725;SDS011;65651;53.154;17.916;2023-12-20T02:56:08;5.40;;;3.80;;
76725;SDS011;65651;53.154;17.916;2023-12-20T02:58:35;5.50;;;4.10;;
76725;SDS011;65651;53.154;17.916;2023-12-20T03:01:02;7.50;;;4.00;;
76725;SDS011;65651;53.154;17.916;2023-12-20T03:03:30;6.10;;;3.60;;
76725;SDS011;65651;53.154;17.916;2023-12-20T03:05:58;3.40;;;2.60;;
76725;SDS011;65651;53.154;17.916;2023-12-20T03:08:26;4.50;;;2.90;;
76725;SDS011;65651;53.154;17.916;2023-12-20T03:10:53;3.60;;;2.70;;
76725;SDS011;65651;53.154;17.916;2023-12-20T03:13:21;3.30;;;2.80;;
76725;SDS011;65651;53.154;17.916;2023-12-20T03:15:48;4.50;;;3.70;;
76725;SDS011;65651;53.154;17.916;2023-12-20T03:18:15;5.80;;;3.30;;
76725;SDS011;65651;53.154;17.916;2023-12-20T03:20:43;6.40;;;3.40;;
76725;SDS011;65651;53.154;17.916;2023-12-20T03:23:10;2.90;;;2.60;;
76725;SDS011;65651;53.154;17.916;2023-12-20T03:25:38;3.60;;;2.90;;
76725;SDS011;65651;53.154;17.916;2023-12-20T03:28:05;2.60;;;2.30;;
76725;SDS011;65651;53.154;17.916;2023-12-20T03:30:32;2.90;;;2.40;;
76725;SDS011;65651;53.154;17.916;2023-12-20T03:32:59;2.90;;;2.00;;
76725;SDS011;65651;53.154;17.916;2023-12-20T03:35:26;2.30;;;1.60;;
76725;SDS011;65651;53.154;17.916;2023-12-20T03:37:54;1.80;;;1.40;;
76725;SDS011;65651;53.154;17.916;2023-12-20T03:40:28;2.40;;;1.80;;
76725;SDS011;65651;53.154;17.916;2023-12-20T03:42:55;4.00;;;2.30;;
76725;SDS011;65651;53.154;17.916;2023-12-20T03:45:23;7.70;;;4.40;;
76725;SDS011;65651;53.154;17.916;2023-12-20T03:47:51;3.40;;;2.20;;
76725;SDS011;65651;53.154;17.916;2023-12-20T03:50:24;3.30;;;2.20;;
76725;SDS011;65651;53.154;17.916;2023-12-20T03:52:52;2.50;;;1.90;;
76725;SDS011;65651;53.154;17.916;2023-12-20T03:55:20;2.60;;;1.60;;
76725;SDS011;65651;53.154;17.916;2023-12-20T03:57:47;2.40;;;1.90;;
76725;SDS011;65651;53.154;17.916;2023-12-20T04:00:14;3.10;;;2.20;;
76725;SDS011;65651;53.154;17.916;2023-12-20T04:02:42;3.30;;;2.50;;
76725;SDS011;65651;53.154;17.916;2023-12-20T04:05:09;5.90;;;2.80;;
76725;SDS011;65651;53.154;17.916;2023-12-20T04:07:37;2.40;;;1.70;;
76725;SDS011;65651;53.154;17.916;2023-12-20T04:10:05;3.40;;;2.70;;
76725;SDS011;65651;53.154;17.916;2023-12-20T04:12:35;4.70;;;2.30;;
76725;SDS011;65651;53.154;17.916;2023-12-20T04:15:03;3.00;;;2.00;;
76725;SDS011;65651;53.154;17.916;2023-12-20T04:17:35;3.60;;;1.50;;
76725;SDS011;65651;53.154;17.916;2023-12-20T04:20:03;3.90;;;2.90;;
76725;SDS011;65651;53.154;17.916;2023-12-20T04:22:30;4.90;;;2.40;;
76725;SDS011;65651;53.154;17.916;2023-12-20T04:24:58;5.30;;;2.70;;
76725;SDS011;65651;53.154;17.916;2023-12-20T04:27:25;5.10;;;2.90;;
76725;SDS011;65651;53.154;17.916;2023-12-20T04:29:52;4.30;;;2.90;;
76725;SDS011;65651;53.154;17.916;2023-12-20T04:32:19;4.60;;;2.90;;
76725;SDS011;65651;53.154;17.916;2023-12-20T04:34:47;5.70;;;2.80;;
76725;SDS011;65651;53.154;17.916;2023-12-20T04:37:14;3.90;;;2.50;;
76725;SDS011;65651;53.154;17.916;2023-12-20T04:39:41;3.90;;;3.40;;
76725;SDS011;65651;53.154;17.916;2023-12-20T04:42:09;4.20;;;3.20;;
76725;SDS011;65651;53.154;17.916;2023-12-20T04:44:36;4.90;;;3.60;;
76725;SDS011;65651;53.154;17.916;2023-12-20T04:47:04;5.50;;;2.90;;
76725;SDS011;65651;53.154;17.916;2023-12-20T04:49:31;4.30;;;3.30;;
76725;SDS011;65651;53.154;17.916;2023-12-20T04:51:58;4.10;;;2.70;;
76725;SDS011;65651;53.154;17.916;2023-12-20T04:54:25;5.30;;;2.30;;
76725;SDS011;65651;53.154;17.916;2023-12-20T04:56:53;3.70;;;2.60;;
76725;SDS011;65651;53.154;17.916;2023-12-20T04:59:20;4.80;;;2.40;;
76725;SDS011;65651;53.154;17.916;2023-12-20T05:01:49;3.00;;;1.80;;
76725;SDS011;65651;53.154;17.916;2023-12-20T05:04:20;3.60;;;2.00;;
76725;SDS011;65651;53.154;17.916;2023-12-20T05:06:47;5.80;;;2.40;;
76725;SDS011;65651;53.154;17.916;2023-12-20T05:09:14;3.70;;;2.50;;
76725;SDS011;65651;53.154;17.916;2023-12-20T05:11:41;3.60;;;2.60;;
76725;SDS011;65651;53.154;17.916;2023-12-20T05:14:09;3.80;;;2.90;;
76725;SDS011;65651;53.154;17.916;2023-12-20T05:16:36;4.10;;;2.30;;
76725;SDS011;65651;53.154;17.916;2023-12-20T05:19:03;3.50;;;2.20;;
76725;SDS011;65651;53.154;17.916;2023-12-20T05:21:33;3.10;;;2.10;;
76725;SDS011;65651;53.154;17.916;2023-12-20T05:24:00;2.10;;;1.10;;
76725;SDS011;65651;53.154;17.916;2023-12-20T05:26:27;2.70;;;1.40;;
76725;SDS011;65651;53.154;17.916;2023-12-20T05:28:56;2.10;;;1.10;;
76725;SDS011;65651;53.154;17.916;2023-12-20T05:31:23;2.70;;;1.80;;
76725;SDS011;65651;53.154;17.916;2023-12-20T05:33:50;3.90;;;2.20;;
76725;SDS011;65651;53.154;17.916;2023-12-20T05:36:18;4.60;;;2.20;;
76725;SDS011;65651;53.154;17.916;2023-12-20T05:38:46;3.00;;;2.00;;
76725;SDS011;65651;53.154;17.916;2023-12-20T05:41:16;3.50;;;2.30;;
76725;SDS011;65651;53.154;17.916;2023-12-20T05:43:43;4.00;;;2.40;;
76725;SDS011;65651;53.154;17.916;2023-12-20T05:46:10;5.20;;;2.20;;
76725;SDS011;65651;53.154;17.916;2023-12-20T05:48:40;4.80;;;2.80;;
76725;SDS011;65651;53.154;17.916;2023-12-20T05:51:07;5.20;;;2.90;;
76725;SDS011;65651;53.154;17.916;2023-12-20T05:53:38;3.90;;;2.60;;
76725;SDS011;65651;53.154;17.916;2023-12-20T05:56:06;4.20;;;2.80;;
76725;SDS011;65651;53.154;17.916;2023-12-20T05:58:33;5.50;;;3.20;;
76725;SDS011;65651;53.154;17.916;2023-12-20T06:01:04;6.40;;;3.70;;
76725;SDS011;65651;53.154;17.916;2023-12-20T06:03:32;7.70;;;3.80;;
76725;SDS011;65651;53.154;17.916;2023-12-20T06:06:08;8.70;;;4.00;;
76725;SDS011;65651;53.154;17.916;2023-12-20T06:08:35;10.40;;;5.30;;
76725;SDS011;65651;53.154;17.916;2023-12-20T06:11:03;10.50;;;4.70;;
76725;SDS011;65651;53.154;17.916;2023-12-20T06:13:30;9.30;;;5.20;;
76725;SDS011;65651;53.154;17.916;2023-12-20T06:15:59;9.30;;;4.90;;
76725;SDS011;65651;53.154;17.916;2023-12-20T06:18:26;6.20;;;3.90;;
76725;SDS011;65651;53.154;17.916;2023-12-20T06:20:54;8.40;;;4.10;;
76725;SDS011;65651;53.154;17.916;2023-12-20T06:23:21;7.10;;;4.20;;
76725;SDS011;65651;53.154;17.916;2023-12-20T06:25:49;8.40;;;5.20;;
76725;SDS011;65651;53.154;17.916;2023-12-20T06:28:16;8.00;;;5.10;;
76725;SDS011;65651;53.154;17.916;2023-12-20T06:30:43;7.80;;;4.60;;
76725;SDS011;65651;53.154;17.916;2023-12-20T06:33:11;8.50;;;4.70;;
76725;SDS011;65651;53.154;17.916;2023-12-20T06:35:38;9.30;;;4.90;;
76725;SDS011;65651;53.154;17.916;2023-12-20T06:38:06;6.90;;;4.20;;
76725;SDS011;65651;53.154;17.916;2023-12-20T06:40:33;8.10;;;5.20;;
76725;SDS011;65651;53.154;17.916;2023-12-20T06:43:00;9.10;;;5.20;;
76725;SDS011;65651;53.154;17.916;2023-12-20T06:45:27;7.40;;;4.80;;
76725;SDS011;65651;53.154;17.916;2023-12-20T06:47:54;6.40;;;5.00;;
76725;SDS011;65651;53.154;17.916;2023-12-20T06:50:22;9.00;;;4.90;;
76725;SDS011;65651;53.154;17.916;2023-12-20T06:52:49;8.50;;;5.40;;
76725;SDS011;65651;53.154;17.916;2023-12-20T06:55:17;10.50;;;6.40;;
76725;SDS011;65651;53.154;17.916;2023-12-20T06:57:44;16.70;;;7.80;;
76725;SDS011;65651;53.154;17.916;2023-12-20T07:00:12;25.40;;;10.30;;
76725;SDS011;65651;53.154;17.916;2023-12-20T07:02:40;25.10;;;9.60;;
76725;SDS011;65651;53.154;17.916;2023-12-20T07:05:08;16.70;;;8.20;;
76725;SDS011;65651;53.154;17.916;2023-12-20T07:07:36;20.00;;;9.60;;
76725;SDS011;65651;53.154;17.916;2023-12-20T07:10:03;28.70;;;11.90;;
76725;SDS011;65651;53.154;17.916;2023-12-20T07:12:31;43.60;;;16.80;;
76725;SDS011;65651;53.154;17.916;2023-12-20T07:14:58;57.80;;;21.20;;
76725;SDS011;65651;53.154;17.916;2023-12-20T07:17:25;52.70;;;18.40;;
76725;SDS011;65651;53.154;17.916;2023-12-20T07:19:53;42.60;;;17.80;;
76725;SDS011;65651;53.154;17.916;2023-12-20T07:22:20;69.70;;;23.80;;
76725;SDS011;65651;53.154;17.916;2023-12-20T07:24:48;75.80;;;22.90;;
76725;SDS011;65651;53.154;17.916;2023-12-20T07:27:16;79.20;;;26.90;;
76725;SDS011;65651;53.154;17.916;2023-12-20T07:29:43;76.20;;;26.80;;
76725;SDS011;65651;53.154;17.916;2023-12-20T07:32:10;65.30;;;18.40;;
76725;SDS011;65651;53.154;17.916;2023-12-20T07:34:38;43.80;;;15.60;;
76725;SDS011;65651;53.154;17.916;2023-12-20T07:37:05;41.30;;;13.60;;
76725;SDS011;65651;53.154;17.916;2023-12-20T07:39:32;36.00;;;16.00;;
76725;SDS011;65651;53.154;17.916;2023-12-20T07:41:59;29.30;;;15.60;;
76725;SDS011;65651;53.154;17.916;2023-12-20T07:44:26;29.80;;;16.00;;
76725;SDS011;65651;53.154;17.916;2023-12-20T07:46:54;27.50;;;16.10;;
76725;SDS011;65651;53.154;17.916;2023-12-20T07:49:21;23.50;;;15.30;;
76725;SDS011;65651;53.154;17.916;2023-12-20T07:51:49;52.30;;;25.70;;
76725;SDS011;65651;53.154;17.916;2023-12-20T07:54:16;60.60;;;28.90;;
76725;SDS011;65651;53.154;17.916;2023-12-20T07:56:43;72.90;;;33.10;;
76725;SDS011;65651;53.154;17.916;2023-12-20T07:59:11;71.10;;;32.50;;
76725;SDS011;65651;53.154;17.916;2023-12-20T08:01:38;79.50;;;34.00;;
76725;SDS011;65651;53.154;17.916;2023-12-20T08:04:05;96.10;;;42.50;;
76725;SDS011;65651;53.154;17.916;2023-12-20T08:06:32;113.50;;;46.80;;
76725;SDS011;65651;53.154;17.916;2023-12-20T08:09:00;107.10;;;45.30;;
76725;SDS011;65651;53.154;17.916;2023-12-20T08:11:27;76.50;;;31.20;;
76725;SDS011;65651;53.154;17.916;2023-12-20T08:13:56;69.00;;;29.90;;
76725;SDS011;65651;53.154;17.916;2023-12-20T08:16:24;67.00;;;27.50;;
76725;SDS011;65651;53.154;17.916;2023-12-20T08:18:52;53.10;;;23.90;;
76725;SDS011;65651;53.154;17.916;2023-12-20T08:21:20;52.90;;;23.20;;
76725;SDS011;65651;53.154;17.916;2023-12-20T08:23:49;42.50;;;20.70;;
76725;SDS011;65651;53.154;17.916;2023-12-20T08:26:18;39.70;;;18.10;;
76725;SDS011;65651;53.154;17.916;2023-12-20T08:28:47;26.80;;;13.50;;
76725;SDS011;65651;53.154;17.916;2023-12-20T08:31:15;21.20;;;10.70;;
76725;SDS011;65651;53.154;17.916;2023-12-20T08:33:44;15.70;;;9.40;;
76725;SDS011;65651;53.154;17.916;2023-12-20T08:36:12;18.60;;;9.50;;
76725;SDS011;65651;53.154;17.916;2023-12-20T08:38:40;19.30;;;9.40;;
76725;SDS011;65651;53.154;17.916;2023-12-20T08:41:07;14.50;;;7.70;;
76725;SDS011;65651;53.154;17.916;2023-12-20T08:43:35;16.80;;;7.40;;
76725;SDS011;65651;53.154;17.916;2023-12-20T08:46:02;12.40;;;5.00;;
76725;SDS011;65651;53.154;17.916;2023-12-20T08:48:30;9.70;;;3.90;;
76725;SDS011;65651;53.154;17.916;2023-12-20T08:50:57;4.80;;;2.50;;
76725;SDS011;65651;53.154;17.916;2023-12-20T08:53:24;7.00;;;2.90;;
76725;SDS011;65651;53.154;17.916;2023-12-20T08:55:52;12.60;;;5.10;;
76725;SDS011;65651;53.154;17.916;2023-12-20T08:58:20;10.20;;;7.10;;
76725;SDS011;65651;53.154;17.916;2023-12-20T09:00:47;13.80;;;8.00;;
76725;SDS011;65651;53.154;17.916;2023-12-20T09:03:15;16.60;;;10.10;;
76725;SDS011;65651;53.154;17.916;2023-12-20T09:05:42;21.70;;;15.00;;
76725;SDS011;65651;53.154;17.916;2023-12-20T09:08:09;56.80;;;38.00;;
76725;SDS011;65651;53.154;17.916;2023-12-20T09:10:37;73.00;;;46.30;;
76725;SDS011;65651;53.154;17.916;2023-12-20T09:13:07;55.60;;;33.50;;
76725;SDS011;65651;53.154;17.916;2023-12-20T09:15:34;82.20;;;47.90;;
76725;SDS011;65651;53.154;17.916;2023-12-20T09:18:01;57.40;;;33.70;;
76725;SDS011;65651;53.154;17.916;2023-12-20T09:20:28;80.30;;;47.50;;
76725;SDS011;65651;53.154;17.916;2023-12-20T09:22:56;36.10;;;20.40;;
76725;SDS011;65651;53.154;17.916;2023-12-20T09:25:23;59.00;;;35.70;;
76725;SDS011;65651;53.154;17.916;2023-12-20T09:27:50;47.70;;;28.50;;
76725;SDS011;65651;53.154;17.916;2023-12-20T09:30:19;17.30;;;10.90;;
76725;SDS011;65651;53.154;17.916;2023-12-20T09:32:47;12.20;;;4.80;;
76725;SDS011;65651;53.154;17.916;2023-12-20T09:35:14;4.90;;;3.20;;
76725;SDS011;65651;53.154;17.916;2023-12-20T09:37:41;6.90;;;2.60;;
76725;SDS011;65651;53.154;17.916;2023-12-20T09:40:12;6.80;;;2.60;;
76725;SDS011;65651;53.154;17.916;2023-12-20T09:45:49;6.90;;;3.80;;
76725;SDS011;65651;53.154;17.916;2023-12-20T09:48:22;6.10;;;3.80;;
76725;SDS011;65651;53.154;17.916;2023-12-20T09:50:52;6.00;;;2.80;;
76725;SDS011;65651;53.154;17.916;2023-12-20T09:53:19;8.60;;;2.60;;
76725;SDS011;65651;53.154;17.916;2023-12-20T09:55:50;5.10;;;2.20;;
76725;SDS011;65651;53.154;17.916;2023-12-20T09:58:19;6.70;;;3.10;;
76725;SDS011;65651;53.154;17.916;2023-12-20T10:00:46;4.20;;;2.10;;
76725;SDS011;65651;53.154;17.916;2023-12-20T10:03:14;4.80;;;1.80;;
76725;SDS011;65651;53.154;17.916;2023-12-20T10:05:42;6.20;;;3.30;;
76725;SDS011;65651;53.154;17.916;2023-12-20T10:08:11;4.40;;;1.60;;
76725;SDS011;65651;53.154;17.916;2023-12-20T10:10:38;1.80;;;1.20;;
76725;SDS011;65651;53.154;17.916;2023-12-20T10:13:06;5.30;;;2.20;;
76725;SDS011;65651;53.154;17.916;2023-12-20T10:15:35;3.40;;;1.00;;
76725;SDS011;65651;53.154;17.916;2023-12-20T10:18:04;5.50;;;1.40;;
76725;SDS011;65651;53.154;17.916;2023-12-20T10:20:32;4.40;;;2.00;;
76725;SDS011;65651;53.154;17.916;2023-12-20T10:23:02;5.20;;;1.80;;
76725;SDS011;65651;53.154;17.916;2023-12-20T10:25:29;4.50;;;1.90;;
76725;SDS011;65651;53.154;17.916;2023-12-20T10:28:13;5.70;;;2.40;;
76725;SDS011;65651;53.154;17.916;2023-12-20T10:30:45;4.30;;;1.60;;
76725;SDS011;65651;53.154;17.916;2023-12-20T10:33:12;2.70;;;1.10;;
76725;SDS011;65651;53.154;17.916;2023-12-20T10:35:40;4.10;;;1.90;;
76725;SDS011;65651;53.154;17.916;2023-12-20T10:38:08;8.40;;;2.90;;
76725;SDS011;65651;53.154;17.916;2023-12-20T10:40:35;4.20;;;2.10;;
76725;SDS011;65651;53.154;17.916;2023-12-20T10:43:03;6.90;;;2.10;;
76725;SDS011;65651;53.154;17.916;2023-12-20T10:45:31;7.40;;;3.40;;
76725;SDS011;65651;53.154;17.916;2023-12-20T10:47:59;6.70;;;2.70;;
76725;SDS011;65651;53.154;17.916;2023-12-20T10:50:28;14.60;;;5.60;;
76725;SDS011;65651;53.154;17.916;2023-12-20T10:52:57;17.90;;;6.30;;
76725;SDS011;65651;53.154;17.916;2023-12-20T10:55:25;11.00;;;3.10;;
76725;SDS011;65651;53.154;17.916;2023-12-20T11:00:51;7.00;;;3.50;;
76725;SDS011;65651;53.154;17.916;2023-12-20T11:03:27;7.20;;;2.70;;
76725;SDS011;65651;53.154;17.916;2023-12-20T11:06:08;16.20;;;4.90;;
76725;SDS011;65651;53.154;17.916;2023-12-20T11:11:26;15.80;;;5.80;;
76725;SDS011;65651;53.154;17.916;2023-12-20T11:14:20;12.60;;;4.30;;
76725;SDS011;65651;53.154;17.916;2023-12-20T11:17:09;11.10;;;3.70;;
76725;SDS011;65651;53.154;17.916;2023-12-20T11:22:24;15.80;;;6.00;;
76725;SDS011;65651;53.154;17.916;2023-12-20T11:24:52;13.40;;;4.50;;
76725;SDS011;65651;53.154;17.916;2023-12-20T11:27:20;18.70;;;7.70;;
76725;SDS011;65651;53.154;17.916;2023-12-20T11:29:54;12.60;;;5.40;;
76725;SDS011;65651;53.154;17.916;2023-12-20T11:37:50;23.30;;;8.80;;
76725;SDS011;65651;53.154;17.916;2023-12-20T11:40:18;6.90;;;3.00;;
76725;SDS011;65651;53.154;17.916;2023-12-20T11:42:49;18.30;;;5.60;;
76725;SDS011;65651;53.154;17.916;2023-12-20T11:45:18;19.70;;;6.60;;
76725;SDS011;65651;53.154;17.916;2023-12-20T11:47:52;14.10;;;4.50;;
76725;SDS011;65651;53.154;17.916;2023-12-20T11:50:21;31.20;;;12.00;;
76725;SDS011;65651;53.154;17.916;2023-12-20T11:52:51;15.80;;;5.50;;
76725;SDS011;65651;53.154;17.916;2023-12-20T11:55:18;15.30;;;6.50;;
76725;SDS011;65651;53.154;17.916;2023-12-20T11:57:50;9.20;;;4.00;;
76725;SDS011;65651;53.154;17.916;2023-12-20T12:00:18;9.80;;;4.20;;
76725;SDS011;65651;53.154;17.916;2023-12-20T12:02:56;16.40;;;7.40;;
76725;SDS011;65651;53.154;17.916;2023-12-20T12:05:25;16.10;;;6.80;;
76725;SDS011;65651;53.154;17.916;2023-12-20T12:07:52;26.80;;;11.20;;
76725;SDS011;65651;53.154;17.916;2023-12-20T12:10:20;11.80;;;4.10;;
76725;SDS011;65651;53.154;17.916;2023-12-20T12:12:47;13.80;;;3.50;;
76725;SDS011;65651;53.154;17.916;2023-12-20T12:15:14;13.50;;;5.00;;
76725;SDS011;65651;53.154;17.916;2023-12-20T12:17:42;21.50;;;7.00;;
76725;SDS011;65651;53.154;17.916;2023-12-20T12:20:10;104.40;;;41.80;;
76725;SDS011;65651;53.154;17.916;2023-12-20T12:25:28;26.10;;;8.30;;
76725;SDS011;65651;53.154;17.916;2023-12-20T12:27:57;9.40;;;3.90;;
76725;SDS011;65651;53.154;17.916;2023-12-20T12:30:25;17.50;;;6.30;;
76725;SDS011;65651;53.154;17.916;2023-12-20T12:32:53;15.10;;;7.30;;
76725;SDS011;65651;53.154;17.916;2023-12-20T12:35:21;47.90;;;17.20;;
76725;SDS011;65651;53.154;17.916;2023-12-20T12:37:48;29.00;;;16.80;;
76725;SDS011;65651;53.154;17.916;2023-12-20T12:40:16;71.00;;;39.70;;
76725;SDS011;65651;53.154;17.916;2023-12-20T12:42:44;172.50;;;49.80;;
76725;SDS011;65651;53.154;17.916;2023-12-20T12:45:12;180.50;;;38.50;;
76725;SDS011;65651;53.154;17.916;2023-12-20T12:47:39;72.80;;;17.30;;
76725;SDS011;65651;53.154;17.916;2023-12-20T12:50:07;98.50;;;22.90;;
76725;SDS011;65651;53.154;17.916;2023-12-20T12:52:35;171.80;;;35.90;;
76725;SDS011;65651;53.154;17.916;2023-12-20T12:55:02;94.90;;;20.50;;
76725;SDS011;65651;53.154;17.916;2023-12-20T12:57:31;132.70;;;26.40;;
76725;SDS011;65651;53.154;17.916;2023-12-20T12:59:59;122.40;;;22.70;;
76725;SDS011;65651;53.154;17.916;2023-12-20T13:02:26;195.60;;;37.10;;
76725;SDS011;65651;53.154;17.916;2023-12-20T13:04:53;150.90;;;28.30;;
76725;SDS011;65651;53.154;17.916;2023-12-20T13:07:21;134.50;;;24.10;;
76725;SDS011;65651;53.154;17.916;2023-12-20T13:09:48;118.20;;;22.20;;
76725;SDS011;65651;53.154;17.916;2023-12-20T13:12:15;90.20;;;23.30;;
76725;SDS011;65651;53.154;17.916;2023-12-20T13:14:42;77.70;;;17.60;;
76725;SDS011;65651;53.154;17.916;2023-12-20T13:17:10;129.50;;;28.60;;
76725;SDS011;65651;53.154;17.916;2023-12-20T13:19:37;78.40;;;18.20;;
76725;SDS011;65651;53.154;17.916;2023-12-20T13:22:05;47.70;;;16.10;;
76725;SDS011;65651;53.154;17.916;2023-12-20T13:24:32;93.40;;;21.50;;
76725;SDS011;65651;53.154;17.916;2023-12-20T13:26:59;93.00;;;20.60;;
76725;SDS011;65651;53.154;17.916;2023-12-20T13:29:26;111.70;;;25.30;;
76725;SDS011;65651;53.154;17.916;2023-12-20T13:31:54;35.60;;;9.70;;
76725;SDS011;65651;53.154;17.916;2023-12-20T13:34:22;27.60;;;8.90;;
76725;SDS011;65651;53.154;17.916;2023-12-20T13:36:49;25.90;;;9.40;;
76725;SDS011;65651;53.154;17.916;2023-12-20T13:39:17;22.30;;;8.90;;
76725;SDS011;65651;53.154;17.916;2023-12-20T13:41:46;25.70;;;10.70;;
76725;SDS011;65651;53.154;17.916;2023-12-20T13:44:13;15.40;;;6.20;;
76725;SDS011;65651;53.154;17.916;2023-12-20T13:46:40;13.60;;;5.70;;
76725;SDS011;65651;53.154;17.916;2023-12-20T13:49:11;10.20;;;2.70;;
76725;SDS011;65651;53.154;17.916;2023-12-20T13:51:38;7.10;;;3.60;;
76725;SDS011;65651;53.154;17.916;2023-12-20T13:54:06;10.40;;;3.40;;
76725;SDS011;65651;53.154;17.916;2023-12-20T13:56:51;10.40;;;3.40;;
76725;SDS011;65651;53.154;17.916;2023-12-20T13:59:18;8.90;;;3.10;;
76725;SDS011;65651;53.154;17.916;2023-12-20T14:01:46;8.40;;;4.40;;
76725;SDS011;65651;53.154;17.916;2023-12-20T14:04:13;12.80;;;3.40;;
76725;SDS011;65651;53.154;17.916;2023-12-20T14:06:40;11.30;;;5.40;;
76725;SDS011;65651;53.154;17.916;2023-12-20T14:09:07;10.20;;;4.90;;
76725;SDS011;65651;53.154;17.916;2023-12-20T14:11:34;12.30;;;4.30;;
76725;SDS011;65651;53.154;17.916;2023-12-20T14:14:07;10.30;;;4.40;;
76725;SDS011;65651;53.154;17.916;2023-12-20T14:16:35;16.50;;;3.90;;
76725;SDS011;65651;53.154;17.916;2023-12-20T14:19:03;13.00;;;4.80;;
76725;SDS011;65651;53.154;17.916;2023-12-20T14:21:33;13.20;;;5.00;;
76725;SDS011;65651;53.154;17.916;2023-12-20T14:24:01;13.70;;;4.10;;
76725;SDS011;65651;53.154;17.916;2023-12-20T14:26:28;18.50;;;6.20;;
76725;SDS011;65651;53.154;17.916;2023-12-20T14:28:55;10.10;;;3.40;;
76725;SDS011;65651;53.154;17.916;2023-12-20T14:31:22;18.20;;;7.50;;
76725;SDS011;65651;53.154;17.916;2023-12-20T14:33:51;14.60;;;5.90;;
76725;SDS011;65651;53.154;17.916;2023-12-20T14:36:21;21.50;;;9.10;;
76725;SDS011;65651;53.154;17.916;2023-12-20T14:38:49;10.10;;;4.40;;
76725;SDS011;65651;53.154;17.916;2023-12-20T14:41:16;6.00;;;2.30;;
76725;SDS011;65651;53.154;17.916;2023-12-20T14:43:45;17.00;;;6.20;;
76725;SDS011;65651;53.154;17.916;2023-12-20T14:46:13;10.40;;;4.70;;
76725;SDS011;65651;53.154;17.916;2023-12-20T14:48:42;15.00;;;4.50;;
76725;SDS011;65651;53.154;17.916;2023-12-20T14:51:09;20.80;;;8.70;;